Amaranth, Pennsylvania
Current Conditions -  °F | °C
As of 12:53 AM on Wednesday 22 Oct 2014 (Local Time) from KHGR Reporting Station
Overcast Overcast  
Wind Chill: 51°   Ceiling: 5000
Heat Index: 51°   Visibility: 9mi
Dew Point: 48°   Wind: 3mph
Humidity: 89%   Direction: 330°NNW
Pressure: 29.92"   Gusts: NA
Location:  39.7745°N, 78.2026°W
Report Text: KHGR 220453Z AUTO 33003KT 9SM OVC050 11/09 A2992 RMK AO2 SLP141 T01060089 401780100 TSNO
Loading
Personal Weather Stations






























Interactive Weather Map New forecast layout! Learn more

10-Day Weather Forecast

Advertisements
Track Severe Weather on mobile